Time;durP1;ratioP1;P1;durP2;ratioP2;P2;SDS_P1;SDS_P2;PMS_P1;PMS_P2;Temp;Humidity;BMP_temperature;BMP_pressure;BME280_temperature;BME280_humidity;BME280_pressure;Samples;Min_cycle;Max_cycle;Signal;HPM_P1;HPM_P2
2022/03/25 00:01:17;;;;;;;12.98;9.65;;;;;;;13.29;33.10;102100.53;5026909;28;20404;-78
2022/03/25 00:03:44;;;;;;;10.75;9.40;;;;;;;13.32;32.96;102118.09;5026362;28;20412;-79
2022/03/25 00:06:11;;;;;;;11.82;8.73;;;;;;;12.79;33.05;102027.88;5026035;28;20049;-78
2022/03/25 00:08:37;;;;;;;10.65;8.55;;;;;;;13.29;33.44;102110.34;5026266;28;20612;-79
2022/03/25 00:11:04;;;;;;;11.30;9.35;;;;;;;13.29;33.50;102116.53;5026151;28;20176;-79
2022/03/25 00:13:31;;;;;;;13.32;9.40;;;;;;;13.17;33.30;102112.09;5026656;28;20405;-81
2022/03/25 00:15:58;;;;;;;10.32;9.07;;;;;;;12.92;33.20;102081.97;5028300;28;20140;-79
2022/03/25 00:18:25;;;;;;;14.63;9.07;;;;;;;12.81;33.51;102069.44;5026710;28;20653;-79
2022/03/25 00:20:51;;;;;;;10.40;9.30;;;;;;;12.86;33.27;102065.56;5026515;28;20080;-80
2022/03/25 00:23:18;;;;;;;12.80;9.65;;;;;;;13.16;33.54;102111.25;5026511;28;20063;-80
2022/03/25 00:25:44;;;;;;;14.40;10.23;;;;;;;13.13;33.63;102110.63;5013360;28;20062;-79
2022/03/25 00:28:11;;;;;;;10.35;8.98;;;;;;;12.97;33.55;102085.13;5006419;28;20191;-79
2022/03/25 00:30:38;;;;;;;11.20;8.77;;;;;;;12.90;33.39;102083.88;5006767;28;20041;-80
2022/03/25 00:33:05;;;;;;;10.00;8.85;;;;;;;13.01;32.83;102107.06;5006667;28;20057;-79
2022/03/25 00:35:33;;;;;;;9.77;8.77;;;;;;;12.99;33.42;102104.53;5008250;28;20053;-80
2022/03/25 00:38:00;;;;;;;15.15;9.93;;;;;;;12.52;33.24;102034.31;5008781;28;20093;-80
2022/03/25 00:40:27;;;;;;;12.05;9.93;;;;;;;12.98;32.84;102101.97;5007184;28;20046;-81
2022/03/25 00:42:54;;;;;;;21.83;9.40;;;;;;;12.83;32.45;102082.66;5008282;28;20061;-80
2022/03/25 00:45:21;;;;;;;23.33;10.02;;;;;;;12.97;32.47;102111.78;5012933;28;20053;-80
2022/03/25 00:47:48;;;;;;;15.55;10.77;;;;;;;12.81;32.41;102092.56;5007769;28;20112;-80
2022/03/25 00:50:16;;;;;;;26.48;10.40;;;;;;;12.70;32.74;102071.22;5006260;28;20438;-79
2022/03/25 00:52:45;;;;;;;27.02;10.82;;;;;;;12.64;32.80;102058.34;5008360;28;20065;-79
2022/03/25 00:55:12;;;;;;;17.75;9.75;;;;;;;12.82;32.24;102086.28;5006869;28;20092;-80
2022/03/25 00:57:39;;;;;;;15.52;9.52;;;;;;;12.87;32.76;102108.13;5006574;28;20049;-80
2022/03/25 01:00:06;;;;;;;10.98;9.77;;;;;;;12.68;33.78;102071.31;5006997;28;20045;-79
2022/03/25 01:02:34;;;;;;;17.17;10.13;;;;;;;12.66;32.85;102054.59;5006119;28;20530;-80
2022/03/25 01:05:01;;;;;;;21.65;10.75;;;;;;;12.88;33.39;102085.81;5006395;28;20100;-81
2022/03/25 01:07:28;;;;;;;13.48;10.07;;;;;;;12.13;32.39;101955.56;5006553;28;20065;-77
2022/03/25 01:09:56;;;;;;;13.73;9.00;;;;;;;12.90;33.11;102089.22;5007112;28;20436;-79
2022/03/25 01:12:23;;;;;;;16.92;10.27;;;;;;;12.90;33.08;102088.38;5006259;28;20490;-81
2022/03/25 01:14:50;;;;;;;15.45;10.00;;;;;;;12.85;33.14;102074.56;5006504;28;20081;-79
2022/03/25 01:17:16;;;;;;;15.50;10.32;;;;;;;12.89;32.86;102081.34;5006561;28;20049;-79
2022/03/25 01:19:45;;;;;;;15.77;9.60;;;;;;;12.87;33.16;102088.63;5006349;28;20348;-80
2022/03/25 01:22:11;;;;;;;13.40;9.80;;;;;;;12.84;33.21;102084.38;5005999;28;20046;-79
2022/03/25 01:24:38;;;;;;;13.45;9.60;;;;;;;12.75;33.60;102077.06;5010199;28;20107;-80
2022/03/25 01:27:05;;;;;;;12.05;9.27;;;;;;;12.64;33.95;102061.84;5026011;28;20469;-78
2022/03/25 01:29:31;;;;;;;11.20;9.27;;;;;;;12.75;34.07;102079.72;5025707;28;20041;-79
2022/03/25 01:31:59;;;;;;;20.88;9.88;;;;;;;12.72;34.77;102080.81;5025492;28;20108;-80
2022/03/25 01:34:26;;;;;;;15.60;9.90;;;;;;;12.58;34.86;102068.50;5025623;28;20132;-80
2022/03/25 01:36:53;;;;;;;13.85;8.85;;;;;;;12.57;35.16;102077.47;5027030;28;20212;-81
2022/03/25 01:39:20;;;;;;;14.98;9.57;;;;;;;12.51;34.29;102069.06;5026792;28;20041;-79
2022/03/25 01:41:47;;;;;;;10.10;8.88;;;;;;;12.45;35.05;102069.50;5026573;28;20354;-80
2022/03/25 01:44:22;;;;;;;15.35;9.68;;;;;;;12.35;34.30;102056.84;5025788;28;20535;-79
2022/03/25 01:46:49;;;;;;;10.70;9.55;;;;;;;12.41;34.13;102060.91;5025537;28;20246;-78
2022/03/25 01:49:16;;;;;;;10.40;9.27;;;;;;;12.42;34.22;102046.63;5025509;28;20041;-79
2022/03/25 01:51:43;;;;;;;11.55;9.57;;;;;;;12.43;34.46;102056.31;5025852;28;20054;-79
2022/03/25 01:54:20;;;;;;;12.63;9.77;;;;;;;12.41;35.08;102066.22;5026880;28;20507;-79
2022/03/25 01:56:52;;;;;;;10.40;8.50;;;;;;;12.21;34.34;102043.72;5025658;28;20046;-80
2022/03/25 01:59:19;;;;;;;10.57;9.45;;;;;;;12.29;34.83;102061.81;5025971;28;20056;-81
2022/03/25 02:01:47;;;;;;;12.38;9.68;;;;;;;11.76;34.45;101984.84;5027644;28;20104;-79
2022/03/25 02:04:14;;;;;;;10.05;8.90;;;;;;;11.95;34.20;102019.00;5030309;28;20084;-80
2022/03/25 02:06:41;;;;;;;11.45;10.25;;;;;;;11.63;34.63;101968.91;5029348;28;20134;-79
2022/03/25 02:09:08;;;;;;;10.30;9.25;;;;;;;12.09;34.50;102039.31;5028887;28;20053;-80
2022/03/25 02:11:35;;;;;;;13.52;9.80;;;;;;;12.19;34.62;102059.81;5029180;28;20077;-80
2022/03/25 02:14:02;;;;;;;9.73;8.77;;;;;;;12.11;35.33;102054.19;5029047;28;20544;-81
2022/03/25 02:16:43;;;;;;;10.57;9.05;;;;;;;12.03;35.36;102035.25;5028348;28;20140;-79
2022/03/25 02:19:18;;;;;;;15.10;10.27;;;;;;;12.00;35.33;102035.47;5026910;28;20072;-78
2022/03/25 02:21:47;;;;;;;9.45;8.55;;;;;;;12.08;35.62;102059.72;5028377;28;20397;-80
2022/03/25 02:24:15;;;;;;;11.43;9.48;;;;;;;11.92;35.92;102028.06;5026920;28;20136;-79
2022/03/25 02:26:43;;;;;;;10.93;9.70;;;;;;;11.97;35.87;102052.53;5008080;28;20068;-79
2022/03/25 02:29:13;;;;;;;14.95;9.60;;;;;;;11.89;35.13;102044.25;5007860;28;20396;-79
2022/03/25 02:31:40;;;;;;;15.15;10.75;;;;;;;12.02;34.82;102044.22;5008488;28;20136;-79
2022/03/25 02:34:08;;;;;;;12.50;9.77;;;;;;;12.12;34.82;102050.56;5008929;28;20096;-79
2022/03/25 02:36:39;;;;;;;13.88;9.68;;;;;;;12.16;34.69;102056.50;5008860;28;20563;-78
2022/03/25 02:39:08;;;;;;;11.68;9.70;;;;;;;12.03;35.75;102045.91;5008781;28;20049;-79
2022/03/25 02:41:34;;;;;;;13.93;10.38;;;;;;;11.86;35.66;102031.13;5008733;28;20205;-79
2022/03/25 02:44:02;;;;;;;12.73;10.27;;;;;;;11.49;35.17;101971.72;5008263;28;20046;-80
2022/03/25 02:46:29;;;;;;;11.95;9.50;;;;;;;11.93;36.46;102055.50;5008396;28;20248;-80
2022/03/25 02:48:56;;;;;;;10.75;8.75;;;;;;;11.88;36.19;102058.50;5008217;28;20057;-79
2022/03/25 02:51:23;;;;;;;11.48;10.30;;;;;;;11.79;36.29;102053.78;5008728;28;20085;-80
2022/03/25 02:53:49;;;;;;;12.63;9.88;;;;;;;11.84;35.65;102050.81;5008254;28;20507;-78
2022/03/25 02:56:17;;;;;;;11.57;10.13;;;;;;;11.73;36.12;102044.44;5008612;28;20050;-80
2022/03/25 02:58:44;;;;;;;14.10;9.85;;;;;;;11.79;35.34;102068.91;5009449;28;20522;-80
2022/03/25 03:01:13;;;;;;;19.00;10.68;;;;;;;11.81;33.85;102062.53;5008323;28;20421;-80
2022/03/25 03:03:40;;;;;;;23.48;10.68;;;;;;;11.91;33.91;102078.72;5008017;28;20144;-81
2022/03/25 03:06:07;;;;;;;13.23;10.55;;;;;;;11.87;34.30;102071.91;5007995;28;20045;-81
2022/03/25 03:08:35;;;;;;;17.13;10.70;;;;;;;11.95;34.41;102077.56;5007757;28;20467;-81
2022/03/25 03:11:02;;;;;;;18.08;9.98;;;;;;;11.77;34.85;102059.25;5008223;28;20073;-80
2022/03/25 03:13:29;;;;;;;12.18;9.68;;;;;;;11.83;32.86;102065.94;5006757;28;20133;-81
2022/03/25 03:15:56;;;;;;;12.85;8.90;;;;;;;11.71;33.74;102050.84;5007956;28;20046;-80
2022/03/25 03:18:23;;;;;;;11.05;8.98;;;;;;;11.93;33.22;102082.13;5007767;28;20050;-81
2022/03/25 03:20:49;;;;;;;12.57;9.35;;;;;;;11.81;32.80;102051.03;5008049;28;20563;-80
2022/03/25 03:23:16;;;;;;;10.48;9.40;;;;;;;11.95;32.61;102075.72;5007703;28;20058;-80
2022/03/25 03:25:43;;;;;;;11.73;9.27;;;;;;;11.29;32.04;101968.66;5020748;28;20128;-80
2022/03/25 03:28:09;;;;;;;14.35;8.40;;;;;;;11.94;32.13;102076.69;5027484;28;20056;-80
2022/03/25 03:30:36;;;;;;;10.50;9.27;;;;;;;11.68;32.17;102041.25;5027065;28;20050;-80
2022/03/25 03:33:04;;;;;;;9.68;8.40;;;;;;;11.75;32.52;102073.63;5026355;28;20320;-80
2022/03/25 03:35:34;;;;;;;11.45;9.00;;;;;;;11.57;32.99;102069.56;5027291;28;20060;-80
2022/03/25 03:38:03;;;;;;;9.32;8.43;;;;;;;11.61;33.15;102087.88;5027220;28;20513;-79
2022/03/25 03:40:30;;;;;;;10.48;9.48;;;;;;;11.44;32.80;102085.53;5027469;28;20111;-80
2022/03/25 03:42:57;;;;;;;9.93;8.88;;;;;;;11.14;33.16;102057.44;5026804;28;20045;-79
2022/03/25 03:45:24;;;;;;;11.57;8.77;;;;;;;11.24;32.87;102089.56;5027182;28;20292;-81
2022/03/25 03:47:52;;;;;;;10.20;9.20;;;;;;;10.99;33.05;102061.13;5028118;28;20077;-80
2022/03/25 03:50:18;;;;;;;9.93;8.95;;;;;;;11.10;33.18;102096.66;5028621;28;20049;-81
2022/03/25 03:52:45;;;;;;;11.00;9.15;;;;;;;10.85;33.55;102073.53;5027308;28;20141;-79
2022/03/25 03:55:12;;;;;;;10.48;8.25;;;;;;;11.03;33.56;102102.50;5026103;28;20049;-78
2022/03/25 03:57:39;;;;;;;9.93;8.68;;;;;;;10.58;34.12;102040.81;5027305;28;20071;-79
2022/03/25 04:00:13;;;;;;;10.52;9.00;;;;;;;10.63;33.89;102060.84;5026554;28;20092;-78
2022/03/25 04:02:41;;;;;;;10.05;9.15;;;;;;;10.56;33.88;102054.22;5026284;28;20512;-79
2022/03/25 04:05:10;;;;;;;10.90;8.93;;;;;;;10.84;34.47;102103.69;5028169;28;20107;-79
2022/03/25 04:07:45;;;;;;;9.57;7.50;;;;;;;10.76;34.20;102083.94;5025924;28;20550;-80
2022/03/25 04:10:18;;;;;;;10.48;8.38;;;;;;;10.94;34.09;102100.44;5026663;28;20431;-79
2022/03/25 04:12:45;;;;;;;9.48;8.40;;;;;;;10.84;34.03;102061.19;5026499;28;20053;-80
2022/03/25 04:15:12;;;;;;;9.48;8.55;;;;;;;11.11;33.86;102094.84;5026697;28;20133;-78
2022/03/25 04:17:41;;;;;;;12.18;8.07;;;;;;;11.05;34.00;102068.69;5025754;28;20128;-79
2022/03/25 04:20:10;;;;;;;8.73;7.93;;;;;;;11.05;34.51;102061.56;5028147;28;20498;-79
2022/03/25 04:22:37;;;;;;;12.30;9.30;;;;;;;11.18;33.87;102085.50;5027492;28;20260;-79
2022/03/25 04:25:08;;;;;;;10.27;8.43;;;;;;;10.85;33.71;102017.75;5018282;28;20049;-78
2022/03/25 04:27:52;;;;;;;11.95;8.75;;;;;;;11.37;34.17;102095.75;5006098;28;20085;-80
2022/03/25 04:30:20;;;;;;;11.55;9.02;;;;;;;11.39;34.17;102093.81;5007034;28;20385;-78
2022/03/25 04:32:47;;;;;;;14.10;8.90;;;;;;;10.70;33.85;101981.56;5005781;28;20196;-79
2022/03/25 04:35:14;;;;;;;9.23;8.30;;;;;;;11.31;34.18;102074.88;5006319;28;20054;-79
2022/03/25 04:37:41;;;;;;;9.27;8.18;;;;;;;11.36;33.62;102086.06;5006181;28;20085;-79
2022/03/25 04:40:11;;;;;;;10.80;8.68;;;;;;;11.34;33.36;102072.03;5006684;28;20220;-79
2022/03/25 04:42:38;;;;;;;9.90;8.82;;;;;;;11.00;33.41;102017.66;5007286;28;20048;-78
2022/03/25 04:45:05;;;;;;;9.57;8.10;;;;;;;11.29;33.46;102072.34;5006229;28;20130;-79
2022/03/25 04:47:31;;;;;;;8.73;7.88;;;;;;;11.13;33.80;102050.41;5006539;28;20194;-78
2022/03/25 04:49:58;;;;;;;13.45;11.38;;;;;;;11.42;33.78;102104.25;5006257;28;20124;-79
2022/03/25 04:52:25;;;;;;;12.63;8.93;;;;;;;11.36;33.52;102093.16;5007325;28;20081;-80
2022/03/25 04:54:51;;;;;;;11.75;8.55;;;;;;;11.21;33.36;102072.00;5006334;28;20249;-80
2022/03/25 04:57:18;;;;;;;10.52;8.48;;;;;;;10.72;33.44;102003.59;5007457;28;20163;-79
2022/03/25 04:59:45;;;;;;;9.98;8.27;;;;;;;11.22;33.55;102080.84;5006146;28;20092;-79
2022/03/25 05:02:11;;;;;;;8.88;8.07;;;;;;;11.12;33.82;102069.97;5006064;28;20064;-79
2022/03/25 05:04:38;;;;;;;13.27;8.77;;;;;;;11.32;33.54;102114.66;5005953;28;20136;-79
2022/03/25 05:07:05;;;;;;;9.75;8.00;;;;;;;11.31;33.79;102120.06;5014302;28;20056;-79
2022/03/25 05:09:33;;;;;;;10.40;8.25;;;;;;;10.97;33.80;102066.56;5018963;28;20093;-80
2022/03/25 05:12:00;;;;;;;9.73;8.57;;;;;;;10.68;34.00;102020.69;5031001;28;20033;-80
2022/03/25 05:14:27;;;;;;;9.63;8.73;;;;;;;11.23;33.89;102117.94;5027988;28;20074;-80
2022/03/25 05:16:53;;;;;;;14.02;8.70;;;;;;;11.07;33.86;102088.06;5008329;28;20056;-79
2022/03/25 05:19:20;;;;;;;11.82;8.85;;;;;;;11.13;33.90;102106.22;5006050;28;20404;-79
2022/03/25 05:21:46;;;;;;;9.10;8.20;;;;;;;10.69;33.65;102033.00;5005805;28;20080;-80
2022/03/25 05:24:13;;;;;;;11.07;9.38;;;;;;;11.20;33.98;102120.81;5006578;28;20058;-80
2022/03/25 05:26:40;;;;;;;8.65;7.75;;;;;;;11.19;34.56;102119.13;5025577;28;20091;-80
2022/03/25 05:29:07;;;;;;;13.05;9.25;;;;;;;11.17;33.80;102125.50;5026621;28;20057;-79
2022/03/25 05:31:36;;;;;;;9.35;8.45;;;;;;;11.04;33.96;102104.19;5025544;28;20503;-79
2022/03/25 05:34:04;;;;;;;12.95;9.30;;;;;;;11.17;34.41;102142.28;5025321;28;20100;-79
2022/03/25 05:36:32;;;;;;;11.15;8.70;;;;;;;10.87;34.31;102097.34;5025919;28;20052;-78
2022/03/25 05:38:59;;;;;;;12.55;8.93;;;;;;;10.68;33.82;102072.00;5025706;28;20136;-80
2022/03/25 05:41:27;;;;;;;12.18;8.82;;;;;;;11.00;34.43;102129.28;5025746;28;20053;-80
2022/03/25 05:43:53;;;;;;;12.85;8.88;;;;;;;9.46;34.34;101868.50;5026507;28;20521;-79
2022/03/25 05:46:20;;;;;;;9.60;8.65;;;;;;;11.11;34.15;102148.00;5025569;28;20053;-78
2022/03/25 05:48:47;;;;;;;9.90;8.85;;;;;;;11.07;34.59;102139.41;5024892;28;20084;-78
2022/03/25 05:51:14;;;;;;;10.88;8.10;;;;;;;11.06;34.24;102139.47;5025411;28;20140;-78
2022/03/25 05:53:41;;;;;;;12.70;8.80;;;;;;;10.78;34.15;102085.53;5025260;28;20140;-78
2022/03/25 05:56:10;;;;;;;13.10;10.00;;;;;;;11.04;34.63;102122.78;5025210;28;20562;-79
2022/03/25 05:58:38;;;;;;;11.05;9.25;;;;;;;10.76;34.70;102074.16;5025288;28;20475;-79
2022/03/25 06:01:09;;;;;;;11.65;9.82;;;;;;;11.12;34.15;102131.97;5024823;28;20045;-79
2022/03/25 06:03:36;;;;;;;10.43;8.02;;;;;;;11.17;34.10;102142.28;5010379;28;20408;-79
2022/03/25 06:06:06;;;;;;;17.38;15.02;;;;;;;11.23;34.77;102131.22;5003535;28;20276;-79
2022/03/25 06:08:33;;;;;;;12.85;9.82;;;;;;;11.05;34.17;102098.78;5004771;28;20156;-79
2022/03/25 06:11:00;;;;;;;12.27;8.95;;;;;;;11.22;34.00;102110.94;5003244;28;20132;-79
2022/03/25 06:13:27;;;;;;;11.65;9.80;;;;;;;11.52;34.11;102147.00;5001830;28;20458;-78
2022/03/25 06:15:54;;;;;;;14.90;9.35;;;;;;;11.36;34.32;102109.13;5000879;28;20054;-79
2022/03/25 06:18:22;;;;;;;15.07;9.43;;;;;;;11.27;33.84;102089.34;5003120;28;20050;-79
2022/03/25 06:20:48;;;;;;;10.98;8.52;;;;;;;11.48;33.66;102118.91;5005034;28;20062;-77
2022/03/25 06:23:16;;;;;;;12.27;9.48;;;;;;;11.38;33.18;102085.94;5002970;28;20291;-79
2022/03/25 06:25:43;;;;;;;13.05;9.82;;;;;;;11.46;33.73;102091.59;5017413;28;20144;-79
2022/03/25 06:28:10;;;;;;;10.48;9.10;;;;;;;11.85;33.63;102133.19;5007824;28;20064;-79
2022/03/25 06:30:39;;;;;;;12.93;8.77;;;;;;;11.74;33.68;102101.16;5003465;28;20500;-80
2022/03/25 06:33:09;;;;;;;12.32;9.13;;;;;;;11.90;33.42;102111.63;5005212;28;20136;-79
2022/03/25 06:35:38;;;;;;;11.63;8.80;;;;;;;12.19;33.52;102139.69;5003100;28;20570;-80
2022/03/25 06:38:06;;;;;;;11.13;9.20;;;;;;;12.27;32.82;102140.94;5002977;28;20503;-78
2022/03/25 06:40:34;;;;;;;16.25;10.18;;;;;;;12.43;33.21;102149.53;5002720;28;20236;-80
2022/03/25 06:43:02;;;;;;;13.07;9.80;;;;;;;12.40;32.63;102128.44;5003360;28;20090;-81
2022/03/25 06:45:30;;;;;;;10.13;8.15;;;;;;;12.71;31.43;102150.19;5002901;28;20060;-80
2022/03/25 06:47:57;;;;;;;12.85;8.88;;;;;;;12.88;30.74;102151.59;5005603;28;20057;-79
2022/03/25 06:50:25;;;;;;;11.23;9.30;;;;;;;12.88;30.91;102139.13;5008208;28;20056;-79
2022/03/25 06:52:53;;;;;;;13.05;9.60;;;;;;;13.08;31.07;102161.63;4990807;28;20464;-80
2022/03/25 06:55:20;;;;;;;11.00;9.98;;;;;;;12.80;31.46;102098.88;5008124;28;20309;-81
2022/03/25 06:57:49;;;;;;;10.68;9.00;;;;;;;13.14;32.49;102139.00;5006586;28;20145;-79
2022/03/25 07:00:18;;;;;;;11.63;9.27;;;;;;;13.38;31.90;102157.66;5006687;28;20128;-80
2022/03/25 07:02:45;;;;;;;11.57;9.18;;;;;;;13.21;30.68;102118.91;5006134;28;20054;-79
2022/03/25 07:05:13;;;;;;;14.45;10.18;;;;;;;13.00;29.54;102046.72;5009983;28;20053;-80
2022/03/25 07:07:41;;;;;;;13.80;9.00;;;;;;;13.69;30.97;102150.81;5006657;28;20062;-81
2022/03/25 07:10:09;;;;;;;11.02;8.55;;;;;;;13.88;32.24;102161.78;5007462;28;20480;-81
2022/03/25 07:12:38;;;;;;;12.75;9.57;;;;;;;13.88;32.61;102155.56;5006311;28;20073;-81
2022/03/25 07:15:05;;;;;;;14.70;9.70;;;;;;;12.44;31.38;101895.53;5007721;28;20050;-82
2022/03/25 07:17:37;;;;;;;10.55;8.95;;;;;;;13.79;33.91;102089.56;5006923;28;20508;-79
2022/03/25 07:20:06;;;;;;;10.85;8.48;;;;;;;14.16;35.30;102138.22;5005071;28;20136;-79
2022/03/25 07:22:36;;;;;;;13.48;10.07;;;;;;;13.86;32.90;102078.28;5007567;28;20160;-81
2022/03/25 07:25:04;;;;;;;14.18;9.50;;;;;;;14.37;30.30;102157.03;5008417;28;20049;-79
2022/03/25 07:27:31;;;;;;;13.23;10.48;;;;;;;14.58;30.52;102181.19;5005908;28;20111;-81
2022/03/25 07:29:58;;;;;;;11.68;10.40;;;;;;;14.17;29.23;102099.00;5006330;28;20108;-80
2022/03/25 07:32:24;;;;;;;11.07;9.55;;;;;;;14.35;30.15;102104.69;5005562;28;20100;-80
2022/03/25 07:34:51;;;;;;;14.10;11.45;;;;;;;14.54;30.46;102126.31;5007714;28;20108;-80
2022/03/25 07:37:19;;;;;;;12.30;11.00;;;;;;;14.89;29.64;102171.50;5008174;28;20077;-78
2022/03/25 07:39:46;;;;;;;15.38;10.98;;;;;;;14.89;29.12;102159.97;5006846;28;20148;-81
2022/03/25 07:42:17;;;;;;;15.13;11.20;;;;;;;14.99;28.87;102168.06;5005900;28;20046;-79
2022/03/25 07:44:44;;;;;;;10.27;8.93;;;;;;;14.79;31.19;102125.13;5006814;28;20064;-80
2022/03/25 07:47:12;;;;;;;14.30;10.43;;;;;;;14.83;29.69;102096.28;5005285;28;20208;-80
2022/03/25 07:49:39;;;;;;;11.02;9.85;;;;;;;15.09;29.97;102145.78;5006586;28;20057;-80
2022/03/25 07:52:07;;;;;;;15.80;11.02;;;;;;;15.31;29.06;102178.75;5005263;28;20415;-79
2022/03/25 07:54:35;;;;;;;15.07;9.93;;;;;;;15.37;29.90;102183.59;5000896;28;20050;-80
2022/03/25 07:57:01;;;;;;;14.88;10.98;;;;;;;15.11;29.25;102141.16;4986749;28;20419;-80
2022/03/25 07:59:28;;;;;;;12.93;11.18;;;;;;;15.47;29.01;102184.53;4986792;28;20086;-80
2022/03/25 08:01:56;;;;;;;12.55;10.88;;;;;;;15.54;27.40;102180.34;4988076;28;20110;-80
2022/03/25 08:04:27;;;;;;;14.10;11.77;;;;;;;14.98;27.35;102088.81;4988047;28;20050;-80
2022/03/25 08:06:55;;;;;;;13.05;11.55;;;;;;;15.57;26.76;102184.59;5003174;28;20054;-80
2022/03/25 08:09:21;;;;;;;12.25;10.43;;;;;;;15.39;28.37;102165.59;5002871;28;20146;-79
2022/03/25 08:11:48;;;;;;;13.43;10.57;;;;;;;15.60;30.78;102198.53;5019765;28;20128;-81
2022/03/25 08:14:17;;;;;;;15.07;11.40;;;;;;;15.71;27.49;102191.47;5004971;28;20050;-81
2022/03/25 08:16:45;;;;;;;14.25;12.75;;;;;;;15.74;27.01;102196.56;5005586;28;20060;-81
2022/03/25 08:19:12;;;;;;;13.00;11.70;;;;;;;15.65;27.73;102181.25;5005724;28;20384;-80
2022/03/25 08:21:39;;;;;;;19.65;13.55;;;;;;;15.63;27.21;102157.28;5005163;28;20282;-81
2022/03/25 08:29:36;;;;;;;11.65;10.45;;;;;;;15.90;29.30;102196.94;4986582;28;20142;-79
2022/03/25 08:32:04;;;;;;;19.83;12.63;;;;;;;15.62;28.35;102141.38;4986069;28;20051;-81
2022/03/25 08:34:31;;;;;;;16.60;13.40;;;;;;;15.92;27.17;102184.28;4986647;28;20062;-83
2022/03/25 08:36:58;;;;;;;17.30;14.80;;;;;;;15.94;26.58;102179.63;4986684;28;20137;-82
2022/03/25 08:39:25;;;;;;;15.27;13.38;;;;;;;16.07;26.99;102189.25;4985357;28;20058;-78
2022/03/25 08:41:52;;;;;;;18.88;14.77;;;;;;;15.62;27.38;102111.91;4986137;28;20149;-77
2022/03/25 08:44:18;;;;;;;16.13;13.20;;;;;;;16.26;27.77;102192.03;4987168;28;20137;-78
2022/03/25 08:46:45;;;;;;;15.50;13.27;;;;;;;15.60;26.78;102083.44;4987566;28;20087;-79
2022/03/25 08:49:12;;;;;;;16.33;13.20;;;;;;;15.50;27.32;102081.72;4988692;28;20065;-80
2022/03/25 08:51:39;;;;;;;17.60;13.95;;;;;;;16.19;26.65;102198.91;4989070;28;20050;-78
2022/03/25 08:54:08;;;;;;;17.23;13.88;;;;;;;16.06;26.89;102163.47;4988207;28;20090;-78
2022/03/25 08:56:35;;;;;;;16.88;14.35;;;;;;;16.10;27.13;102170.25;4986420;28;20049;-80
2022/03/25 08:59:02;;;;;;;17.35;14.40;;;;;;;16.13;26.46;102149.41;4986687;28;20519;-79
2022/03/25 09:01:30;;;;;;;20.73;14.85;;;;;;;16.05;26.41;102129.63;4986503;28;20046;-79
2022/03/25 09:03:57;;;;;;;17.40;13.50;;;;;;;16.23;27.37;102166.34;4987783;28;20058;-79
2022/03/25 09:06:24;;;;;;;16.40;14.60;;;;;;;15.69;27.17;102055.03;4987204;28;20061;-80
2022/03/25 09:08:51;;;;;;;16.35;14.02;;;;;;;16.52;27.89;102188.88;4987767;28;20559;-80
2022/03/25 09:11:19;;;;;;;16.52;13.32;;;;;;;16.38;27.78;102153.44;4992199;28;20124;-82
2022/03/25 09:13:46;;;;;;;15.68;13.10;;;;;;;16.17;28.77;102128.56;4997596;28;20060;-81
2022/03/25 09:16:13;;;;;;;18.10;13.57;;;;;;;16.40;28.15;102156.81;5005387;28;20057;-81
2022/03/25 09:18:40;;;;;;;17.00;12.55;;;;;;;16.67;29.88;102185.69;5024052;28;20046;-82
2022/03/25 09:21:07;;;;;;;13.35;11.82;;;;;;;16.71;30.88;102175.53;4991958;28;20043;-80
2022/03/25 09:23:35;;;;;;;14.48;12.68;;;;;;;16.39;29.57;102135.53;4986629;28;20313;-80
2022/03/25 09:26:02;;;;;;;14.55;11.43;;;;;;;16.35;31.02;102137.63;5012912;28;20082;-80
2022/03/25 09:28:29;;;;;;;14.98;11.20;;;;;;;16.76;31.29;102183.16;5005531;28;20562;-81
2022/03/25 09:30:56;;;;;;;12.90;11.60;;;;;;;16.52;30.96;102132.59;5005474;28;20081;-80
2022/03/25 09:33:23;;;;;;;14.43;10.57;;;;;;;16.91;31.18;102180.94;5005561;28;20431;-81
2022/03/25 09:35:50;;;;;;;12.98;9.77;;;;;;;17.08;32.17;102180.25;5005563;28;20069;-82
2022/03/25 09:38:17;;;;;;;18.17;11.73;;;;;;;17.03;31.25;102158.38;5006331;28;20049;-81
2022/03/25 09:40:46;;;;;;;16.85;12.10;;;;;;;17.09;30.57;102160.50;5006523;28;20145;-80
2022/03/25 09:43:13;;;;;;;13.55;10.35;;;;;;;17.09;31.67;102169.38;5005561;28;20369;-80
2022/03/25 09:45:40;;;;;;;14.15;12.00;;;;;;;17.15;29.53;102151.88;5015854;28;20054;-80
2022/03/25 09:48:07;;;;;;;12.13;10.82;;;;;;;17.54;30.17;102175.13;5026340;28;20487;-80
2022/03/25 09:50:36;;;;;;;20.77;11.07;;;;;;;17.66;29.00;102169.44;5021229;28;20077;-81
2022/03/25 09:53:05;;;;;;;13.15;11.43;;;;;;;17.27;28.12;102090.84;5004535;28;20054;-79
2022/03/25 09:55:46;;;;;;;12.85;11.23;;;;;;;17.73;31.38;102167.88;5000780;28;20112;-80
2022/03/25 09:58:19;;;;;;;18.55;11.38;;;;;;;17.89;28.37;102174.53;5003952;28;20046;-80
2022/03/25 10:00:53;;;;;;;12.70;10.65;;;;;;;17.63;29.78;102126.78;5004162;28;20569;-80
2022/03/25 10:03:32;;;;;;;10.75;9.63;;;;;;;17.27;30.47;102048.72;5002887;28;20065;-81
2022/03/25 10:06:01;;;;;;;14.45;10.23;;;;;;;17.92;30.25;102144.69;5003610;28;20050;-80
2022/03/25 10:08:38;;;;;;;15.57;12.80;;;;;;;18.14;26.12;102143.47;5004793;28;20052;-80
2022/03/25 10:11:22;;;;;;;16.58;12.70;;;;;;;18.20;27.84;102131.25;5005443;28;20144;-79
2022/03/25 10:14:28;;;;;;;13.40;10.57;;;;;;;18.37;29.11;102138.50;5004812;28;20092;-81
2022/03/25 10:16:55;;;;;;;14.05;11.70;;;;;;;18.30;27.28;102118.59;4994514;28;20042;-79
2022/03/25 10:19:27;;;;;;;11.82;10.57;;;;;;;18.41;28.13;102117.56;5005209;28;20050;-81
2022/03/25 10:21:56;;;;;;;11.15;9.98;;;;;;;18.54;27.23;102135.03;5006200;28;20476;-78
2022/03/25 10:24:45;;;;;;;10.77;9.68;;;;;;;18.73;27.64;102146.63;5009028;28;20053;-80
2022/03/25 10:27:22;;;;;;;11.90;10.18;;;;;;;18.90;25.28;102139.59;5003813;28;20159;-80
2022/03/25 10:29:50;;;;;;;13.80;10.85;;;;;;;19.05;26.36;102126.44;5008258;28;20561;-81
2022/03/25 10:32:20;;;;;;;19.00;10.27;;;;;;;19.32;31.51;102152.41;5009545;28;20655;-79
2022/03/25 10:35:09;;;;;;;13.52;10.23;;;;;;;18.82;25.18;102077.66;5007678;28;20123;-81
2022/03/25 10:37:58;;;;;;;11.68;9.38;;;;;;;19.30;30.78;102154.44;5008722;28;20107;-79
2022/03/25 10:40:25;;;;;;;13.50;9.27;;;;;;;19.22;27.87;102155.19;5011886;28;20064;-79
2022/03/25 10:43:05;;;;;;;13.68;8.85;;;;;;;19.10;30.78;102116.94;5006729;28;20132;-80
2022/03/25 10:45:34;;;;;;;13.07;8.90;;;;;;;18.92;30.09;102108.00;5006163;28;20137;-79
2022/03/25 10:48:18;;;;;;;13.15;9.45;;;;;;;18.55;31.52;102098.22;5008143;28;20500;-81
2022/03/25 10:51:07;;;;;;;11.63;9.73;;;;;;;18.79;26.68;102143.38;5006312;28;20547;-80
2022/03/25 10:53:35;;;;;;;10.13;8.82;;;;;;;18.79;29.65;102111.09;5021010;28;20133;-80
2022/03/25 10:56:10;;;;;;;10.73;9.55;;;;;;;18.90;30.11;102137.75;5006799;28;20108;-81
2022/03/25 10:58:38;;;;;;;10.13;9.13;;;;;;;19.13;29.32;102135.44;5007270;28;20502;-80
2022/03/25 11:01:06;;;;;;;12.25;8.45;;;;;;;19.00;30.67;102126.91;5006484;28;20359;-81
2022/03/25 11:03:34;;;;;;;13.30;10.50;;;;;;;18.26;30.04;102033.91;4990242;28;20217;-80
2022/03/25 11:06:01;;;;;;;12.85;8.48;;;;;;;19.00;30.28;102130.47;5006614;28;20056;-80
2022/03/25 11:08:28;;;;;;;10.68;8.70;;;;;;;18.92;30.37;102116.09;5007607;28;20077;-79
2022/03/25 11:10:58;;;;;;;11.68;10.55;;;;;;;18.66;27.37;102083.69;5008585;28;20057;-79
2022/03/25 11:13:26;;;;;;;12.15;10.10;;;;;;;18.53;29.64;102063.41;5006158;28;20050;-80
2022/03/25 11:15:55;;;;;;;15.20;12.63;;;;;;;19.00;28.29;102125.09;5006548;28;20780;-80
2022/03/25 11:18:27;;;;;;;10.23;8.93;;;;;;;19.16;29.65;102118.16;5006899;28;20051;-80
2022/03/25 11:20:58;;;;;;;12.88;11.60;;;;;;;18.96;28.72;102061.81;5006220;28;20042;-80
2022/03/25 11:23:36;;;;;;;12.57;11.30;;;;;;;19.48;26.72;102104.06;5006094;28;20050;-80
2022/03/25 11:26:08;;;;;;;13.73;9.40;;;;;;;19.50;29.90;102090.44;5037439;28;20145;-78